Theale, United Kingdom
Current Conditions -  °F | °C
As of 9:50 AM on Wednesday 26 Nov 2014 (Local Time) from EGUB Reporting Station
Drizzle Drizzle  
Wind Chill: 45°   Ceiling: 200
Heat Index: 45°   Visibility: 1mi
Dew Point: 45°   Wind: 2mph
Humidity: 100%   Direction: 80°E
Pressure: 29.88"   Gusts: NA
Location:  51.44°N, 1.08°W
Report Text: EGUB 260950Z 08002KT 1600 -DZ BKN002 OVC004 07/07 Q1012 AMB TEMPO FEW002 OVC003 YLO2
Loading
Personal Weather Stations






























Interactive Weather Map New forecast layout! Learn more

10-Day Weather Forecast

Advertisements
Track Severe Weather on mobile